createdAt,value
2022-09-07T00:01:04.277Z,17.85
2022-09-07T00:03:32.612Z,17.86
2022-09-07T00:06:00.937Z,17.85
2022-09-07T00:08:29.092Z,17.84
2022-09-07T00:10:58.952Z,17.84
2022-09-07T00:13:31.064Z,17.81
2022-09-07T00:15:59.179Z,17.84
2022-09-07T00:18:27.288Z,17.86
2022-09-07T00:21:02.161Z,17.82
2022-09-07T00:23:31.327Z,17.89
2022-09-07T00:26:02.980Z,17.90
2022-09-07T00:28:32.565Z,17.89
2022-09-07T00:31:00.730Z,17.90
2022-09-07T00:33:29.514Z,17.91
2022-09-07T00:35:59.162Z,17.86
2022-09-07T00:38:27.332Z,17.84
2022-09-07T00:40:55.417Z,17.86
2022-09-07T00:43:34.223Z,17.89
2022-09-07T00:46:02.844Z,17.83
2022-09-07T00:48:35.371Z,17.75
2022-09-07T00:51:06.908Z,17.57
2022-09-07T00:53:39.420Z,17.48
2022-09-07T00:56:08.392Z,17.47
2022-09-07T00:58:40.112Z,17.40
2022-09-07T01:01:09.737Z,17.27
2022-09-07T01:03:41.129Z,17.08
2022-09-07T01:06:16.793Z,16.91
2022-09-07T01:08:48.760Z,16.89
2022-09-07T01:11:18.496Z,16.82
2022-09-07T01:13:49.794Z,16.74
2022-09-07T01:16:32.868Z,16.57
2022-09-07T01:19:13.894Z,16.68
2022-09-07T01:21:59.566Z,16.66
2022-09-07T01:24:42.898Z,16.63
2022-09-07T01:27:51.476Z,16.55
2022-09-07T01:30:21.513Z,16.56
2022-09-07T01:33:07.288Z,16.65
2022-09-07T01:35:45.072Z,16.71
2022-09-07T01:38:23.272Z,16.64
2022-09-07T01:40:58.460Z,16.65
2022-09-07T01:43:38.460Z,16.78
2022-09-07T01:46:12.056Z,16.55
2022-09-07T01:48:45.441Z,16.59
2022-09-07T01:51:14.066Z,16.73
2022-09-07T01:53:50.658Z,16.71
2022-09-07T01:56:25.724Z,16.53
2022-09-07T01:58:58.494Z,16.58
2022-09-07T02:01:32.983Z,16.49
2022-09-07T02:04:06.146Z,16.67
2022-09-07T02:06:41.688Z,16.48
2022-09-07T02:09:18.415Z,16.44
2022-09-07T02:11:50.121Z,16.44
2022-09-07T02:14:24.040Z,16.45
2022-09-07T02:16:56.990Z,16.58
2022-09-07T02:19:29.528Z,16.49
2022-09-07T02:22:02.477Z,16.38
2022-09-07T02:24:35.312Z,16.30
2022-09-07T02:27:08.856Z,16.29
2022-09-07T02:29:38.502Z,16.23
2022-09-07T02:32:07.184Z,16.26
2022-09-07T02:34:35.184Z,16.27
2022-09-07T02:37:06.704Z,16.20
2022-09-07T02:39:35.032Z,16.24
2022-09-07T02:42:03.223Z,16.20
2022-09-07T02:44:34.676Z,16.09
2022-09-07T02:47:14.436Z,16.15
2022-09-07T02:50:09.789Z,16.23
2022-09-07T02:52:48.269Z,16.10
2022-09-07T02:55:27.066Z,16.25
2022-09-07T02:58:04.872Z,16.16
2022-09-07T03:00:36.974Z,16.12
2022-09-07T03:03:16.768Z,16.11
2022-09-07T03:05:50.732Z,16.11
2022-09-07T03:08:22.748Z,16.13
2022-09-07T03:10:51.680Z,16.17
2022-09-07T03:13:25.403Z,16.48
2022-09-07T03:15:56.144Z,16.51
2022-09-07T03:18:26.490Z,16.56
2022-09-07T03:20:54.912Z,16.56
2022-09-07T03:23:23.170Z,16.42
2022-09-07T03:25:51.355Z,16.41
2022-09-07T03:28:19.359Z,16.48
2022-09-07T03:30:48.435Z,16.43
2022-09-07T03:33:17.658Z,16.38
2022-09-07T03:35:57.449Z,16.41
2022-09-07T03:38:25.488Z,16.36
2022-09-07T03:40:59.119Z,16.43
2022-09-07T03:43:27.316Z,16.39
2022-09-07T03:45:58.527Z,16.35
2022-09-07T03:48:26.590Z,16.44
2022-09-07T03:51:00.277Z,16.52
2022-09-07T03:53:28.336Z,16.35
2022-09-07T03:56:00.934Z,16.48
2022-09-07T03:58:31.257Z,16.34
2022-09-07T04:01:00.346Z,16.27
2022-09-07T04:03:28.524Z,16.17
2022-09-07T04:05:57.339Z,16.19
2022-09-07T04:08:27.866Z,16.10
2022-09-07T04:10:57.339Z,16.02
2022-09-07T04:13:25.677Z,15.96
2022-09-07T04:15:54.051Z,15.98
2022-09-07T04:18:25.545Z,16.02
2022-09-07T04:20:53.581Z,15.99
2022-09-07T04:23:21.824Z,16.01
2022-09-07T04:25:52.129Z,16.01
2022-09-07T04:28:21.777Z,16.01
2022-09-07T04:30:49.902Z,16.22
2022-09-07T04:33:18.244Z,16.02
2022-09-07T04:35:46.222Z,16.07
2022-09-07T04:38:16.174Z,16.05
2022-09-07T04:40:44.097Z,16.13
2022-09-07T04:43:14.070Z,16.06
2022-09-07T04:45:42.030Z,16.15
2022-09-07T04:48:09.836Z,16.08
2022-09-07T04:50:37.765Z,16.04
2022-09-07T04:53:05.607Z,15.97
2022-09-07T04:55:33.448Z,15.87
2022-09-07T04:58:01.255Z,15.91
2022-09-07T05:00:30.696Z,15.93
2022-09-07T05:02:58.451Z,15.89
2022-09-07T05:05:26.450Z,15.82
2022-09-07T05:07:54.421Z,15.83
2022-09-07T05:10:22.179Z,15.80
2022-09-07T05:12:50.106Z,15.88
2022-09-07T05:15:18.034Z,15.78
2022-09-07T05:17:47.275Z,15.97
2022-09-07T05:20:19.620Z,15.84
2022-09-07T05:22:48.258Z,15.83
2022-09-07T05:25:16.267Z,15.81
2022-09-07T05:27:44.114Z,15.87
2022-09-07T05:33:04.027Z,15.79
2022-09-07T05:35:32.092Z,15.84
2022-09-07T05:37:59.959Z,15.87
2022-09-07T05:40:27.804Z,15.79
2022-09-07T05:42:55.686Z,15.75
2022-09-07T05:45:24.159Z,15.82
2022-09-07T05:47:51.979Z,15.79
2022-09-07T05:50:21.296Z,15.74
2022-09-07T05:52:49.346Z,15.71
2022-09-07T05:55:29.389Z,15.76
2022-09-07T05:57:58.515Z,15.77
2022-09-07T06:00:26.345Z,15.86
2022-09-07T06:02:54.371Z,15.92
2022-09-07T06:05:23.660Z,16.04
2022-09-07T06:07:51.597Z,16.15
2022-09-07T06:13:07.581Z,16.23
2022-09-07T06:15:35.483Z,16.20
2022-09-07T06:18:03.268Z,15.98
2022-09-07T06:20:32.513Z,16.18
2022-09-07T06:23:00.420Z,16.26
2022-09-07T06:25:28.294Z,16.32
2022-09-07T06:27:56.354Z,16.29
2022-09-07T06:30:25.332Z,16.28
2022-09-07T06:32:53.394Z,16.28
2022-09-07T06:35:21.248Z,16.44
2022-09-07T06:37:50.459Z,16.26
2022-09-07T06:40:18.459Z,16.24
2022-09-07T06:42:46.269Z,16.30
2022-09-07T06:45:14.121Z,16.29
2022-09-07T06:47:42.142Z,16.41
2022-09-07T06:50:12.385Z,16.37
2022-09-07T06:55:29.922Z,16.43
2022-09-07T06:57:57.858Z,16.42
2022-09-07T07:00:25.719Z,16.48
2022-09-07T07:02:53.854Z,16.51
2022-09-07T07:05:21.985Z,16.43
2022-09-07T07:07:49.928Z,16.40
2022-09-07T07:10:22.182Z,16.61
2022-09-07T07:12:57.389Z,16.60
2022-09-07T07:15:27.618Z,16.86
2022-09-07T07:18:09.274Z,16.78
2022-09-07T07:20:43.145Z,16.94
2022-09-07T07:23:12.223Z,17.09
2022-09-07T07:25:40.189Z,17.28
2022-09-07T07:30:58.285Z,17.64
2022-09-07T07:33:43.814Z,17.51
2022-09-07T07:36:13.069Z,17.63
2022-09-07T07:44:26.042Z,18.37
2022-09-07T07:46:55.553Z,18.40
2022-09-07T07:49:23.620Z,18.35
2022-09-07T07:54:39.367Z,18.38
2022-09-07T07:57:07.684Z,18.48
2022-09-07T07:59:37.501Z,18.76
2022-09-07T08:02:06.413Z,18.90
2022-09-07T08:04:35.136Z,18.65
2022-09-07T08:07:09.719Z,18.87
2022-09-07T08:09:38.246Z,19.25
2022-09-07T08:12:06.181Z,19.16
2022-09-07T08:14:36.517Z,19.20
2022-09-07T08:17:05.869Z,19.30
2022-09-07T08:19:33.845Z,19.40
2022-09-07T08:22:03.876Z,19.54
2022-09-07T08:24:32.925Z,19.61
2022-09-07T08:27:00.819Z,19.80
2022-09-07T08:29:33.461Z,19.51
2022-09-07T08:32:02.444Z,19.69
2022-09-07T08:34:31.749Z,19.72
2022-09-07T08:36:59.757Z,19.72
2022-09-07T08:39:27.676Z,19.39
2022-09-07T08:42:14.876Z,19.24
2022-09-07T08:44:48.857Z,19.32
2022-09-07T08:47:28.513Z,19.51
2022-09-07T08:50:05.320Z,20.20
2022-09-07T08:52:43.763Z,20.82
2022-09-07T08:55:17.508Z,21.72
2022-09-07T08:57:52.634Z,21.27
2022-09-07T09:00:22.594Z,21.18
2022-09-07T09:05:47.847Z,22.26
2022-09-07T09:08:29.819Z,23.72
2022-09-07T09:11:05.273Z,23.23
2022-09-07T09:13:45.343Z,23.09
2022-09-07T09:16:20.133Z,22.28
2022-09-07T09:19:03.226Z,22.73
2022-09-07T09:21:33.132Z,22.51
2022-09-07T09:24:12.128Z,23.94
2022-09-07T09:26:43.226Z,23.79
2022-09-07T09:29:15.392Z,23.11
2022-09-07T09:31:43.582Z,21.75
2022-09-07T09:34:14.254Z,22.80
2022-09-07T09:36:46.807Z,22.95
2022-09-07T09:39:35.352Z,23.45
2022-09-07T09:42:16.819Z,22.88
2022-09-07T09:44:45.718Z,22.79
2022-09-07T09:47:32.690Z,23.15
2022-09-07T09:50:03.319Z,22.24
2022-09-07T09:52:47.597Z,23.98
2022-09-07T09:55:35.818Z,24.13
2022-09-07T10:04:00.900Z,23.04
2022-09-07T10:06:35.853Z,22.93
2022-09-07T10:09:06.932Z,22.65
2022-09-07T10:14:33.483Z,24.47
2022-09-07T10:17:02.545Z,24.01
2022-09-07T10:19:36.096Z,22.80
2022-09-07T10:22:08.343Z,23.15
2022-09-07T10:24:41.469Z,23.87
2022-09-07T10:27:21.767Z,25.36
2022-09-07T10:29:49.728Z,25.87
2022-09-07T10:32:26.914Z,26.44
2022-09-07T10:35:09.159Z,26.16
2022-09-07T10:37:50.823Z,26.31
2022-09-07T10:40:29.575Z,27.10
2022-09-07T10:43:22.236Z,26.45
2022-09-07T10:46:10.577Z,27.49
2022-09-07T10:48:49.423Z,27.65
2022-09-07T10:51:19.163Z,26.46
2022-09-07T10:56:53.428Z,26.09
2022-09-07T11:02:31.264Z,26.09
2022-09-07T11:05:09.949Z,26.11
2022-09-07T11:07:55.440Z,24.74
2022-09-07T11:10:33.447Z,25.52
2022-09-07T11:13:06.824Z,24.60
2022-09-07T11:15:39.134Z,25.94
2022-09-07T11:18:13.108Z,26.50
2022-09-07T11:20:46.159Z,27.11
2022-09-07T11:23:20.199Z,27.83
2022-09-07T11:25:59.918Z,28.10
2022-09-07T11:28:35.270Z,27.49
2022-09-07T11:31:08.334Z,27.51
2022-09-07T11:34:23.820Z,26.18
2022-09-07T11:36:44.171Z,26.53
2022-09-07T11:39:19.885Z,26.84
2022-09-07T11:41:55.245Z,26.67
2022-09-07T11:44:30.661Z,25.90
2022-09-07T11:47:05.899Z,25.25
2022-09-07T11:49:33.777Z,27.01
2022-09-07T11:52:05.499Z,27.96
2022-09-07T11:54:45.867Z,28.97
2022-09-07T11:57:28.408Z,29.30
2022-09-07T12:00:05.763Z,30.89
2022-09-07T12:03:01.917Z,27.56
2022-09-07T12:05:51.111Z,26.30
2022-09-07T12:08:31.652Z,26.01
2022-09-07T12:11:11.756Z,24.75
2022-09-07T12:14:12.457Z,24.80
2022-09-07T12:17:02.633Z,25.70
2022-09-07T12:19:30.534Z,27.00
2022-09-07T12:21:59.756Z,26.05
2022-09-07T12:24:36.351Z,25.00
2022-09-07T12:27:05.349Z,24.19
2022-09-07T12:29:36.829Z,25.59
2022-09-07T12:32:53.145Z,27.15
2022-09-07T12:34:58.018Z,28.53
2022-09-07T12:37:40.838Z,28.06
2022-09-07T12:40:51.375Z,28.79
2022-09-07T12:43:53.851Z,27.92
2022-09-07T12:46:46.784Z,27.91
2022-09-07T12:49:39.506Z,28.72
2022-09-07T12:52:33.152Z,29.98
2022-09-07T12:55:27.811Z,31.04
2022-09-07T12:58:13.197Z,32.46
2022-09-07T13:00:54.696Z,30.35
2022-09-07T13:03:55.094Z,28.52
2022-09-07T13:09:35.688Z,27.47
2022-09-07T13:15:32.606Z,25.46
2022-09-07T13:18:00.757Z,25.79
2022-09-07T13:20:37.548Z,26.01
2022-09-07T13:23:21.260Z,28.15
2022-09-07T13:25:52.067Z,28.41
2022-09-07T13:28:31.965Z,28.55
2022-09-07T13:31:22.063Z,28.76
2022-09-07T13:33:54.722Z,28.66
2022-09-07T13:36:46.368Z,29.76
2022-09-07T13:39:18.676Z,29.21
2022-09-07T13:41:52.236Z,29.96
2022-09-07T13:44:26.240Z,30.02
2022-09-07T13:47:33.937Z,30.93
2022-09-07T13:50:18.299Z,28.86
2022-09-07T13:53:17.317Z,28.08
2022-09-07T13:55:54.060Z,26.62
2022-09-07T13:58:28.417Z,25.95
2022-09-07T14:01:00.052Z,27.06
2022-09-07T14:03:31.427Z,29.20
2022-09-07T14:06:16.729Z,30.03
2022-09-07T14:08:48.613Z,29.95
2022-09-07T14:11:20.678Z,31.09
2022-09-07T14:14:08.704Z,30.91
2022-09-07T14:16:39.210Z,30.86
2022-09-07T14:19:18.251Z,30.10
2022-09-07T14:21:56.010Z,31.31
2022-09-07T14:24:31.070Z,29.75
2022-09-07T14:27:01.287Z,30.37
2022-09-07T14:29:32.114Z,29.97
2022-09-07T14:32:01.931Z,31.24
2022-09-07T14:34:33.286Z,30.20
2022-09-07T14:37:06.378Z,27.69
2022-09-07T14:39:39.255Z,26.29
2022-09-07T14:42:12.256Z,26.38
2022-09-07T14:44:43.115Z,25.58
2022-09-07T14:47:25.974Z,25.98
2022-09-07T14:49:55.949Z,27.94
2022-09-07T14:52:36.721Z,29.47
2022-09-07T14:55:19.866Z,28.86
2022-09-07T14:57:50.231Z,26.96
2022-09-07T15:00:30.139Z,26.43
2022-09-07T15:02:58.238Z,25.98
2022-09-07T15:05:28.452Z,26.04
2022-09-07T15:08:00.138Z,25.21
2022-09-07T15:10:35.638Z,24.71
2022-09-07T15:13:07.246Z,25.89
2022-09-07T15:15:37.436Z,26.48
2022-09-07T15:18:09.225Z,27.03
2022-09-07T15:20:40.880Z,26.10
2022-09-07T15:23:12.309Z,26.68
2022-09-07T15:25:43.279Z,26.17
2022-09-07T15:34:09.813Z,27.14
2022-09-07T15:36:40.335Z,26.17
2022-09-07T15:39:17.114Z,26.97
2022-09-07T15:41:45.710Z,26.32
2022-09-07T15:44:15.914Z,26.50
2022-09-07T15:47:43.232Z,25.76
2022-09-07T15:56:40.058Z,26.06
2022-09-07T15:59:14.373Z,26.10
2022-09-07T16:01:59.430Z,25.51
2022-09-07T16:04:28.033Z,25.33
2022-09-07T16:06:55.912Z,24.69
2022-09-07T16:09:23.785Z,24.94
2022-09-07T16:11:52.090Z,25.03
2022-09-07T16:14:20.474Z,24.82
2022-09-07T16:19:41.061Z,25.19
2022-09-07T16:23:13.286Z,25.06
2022-09-07T16:24:59.997Z,25.24
2022-09-07T16:27:32.142Z,25.22
2022-09-07T16:30:00.783Z,25.50
2022-09-07T16:32:45.685Z,25.18
2022-09-07T16:35:13.758Z,25.08
2022-09-07T16:38:43.605Z,24.47
2022-09-07T16:40:29.328Z,24.44
2022-09-07T16:42:57.207Z,24.82
2022-09-07T16:48:14.307Z,23.84
2022-09-07T16:50:56.512Z,23.46
2022-09-07T16:53:29.114Z,22.99
2022-09-07T16:56:01.670Z,22.84
2022-09-07T16:58:38.299Z,22.67
2022-09-07T17:01:07.730Z,22.58
2022-09-07T17:03:37.403Z,22.30
2022-09-07T17:06:06.726Z,22.28
2022-09-07T17:08:35.390Z,22.09
2022-09-07T17:11:04.450Z,21.99
2022-09-07T17:13:33.084Z,21.96
2022-09-07T17:16:04.389Z,21.81
2022-09-07T17:21:21.994Z,21.55
2022-09-07T17:23:55.367Z,21.34
2022-09-07T17:26:27.420Z,21.31
2022-09-07T17:29:00.273Z,21.11
2022-09-07T17:34:19.491Z,20.85
2022-09-07T17:36:49.097Z,20.81
2022-09-07T17:39:19.690Z,20.73
2022-09-07T17:41:48.674Z,20.62
2022-09-07T17:44:17.458Z,20.53
2022-09-07T17:46:45.455Z,20.40
2022-09-07T17:49:16.246Z,20.24
2022-09-07T17:51:46.108Z,20.11
2022-09-07T17:54:17.627Z,19.94
2022-09-07T17:56:46.091Z,19.70
2022-09-07T18:02:08.240Z,19.59
2022-09-07T18:04:52.944Z,19.40
2022-09-07T18:07:21.946Z,19.28
2022-09-07T18:09:51.220Z,19.27
2022-09-07T18:12:19.129Z,19.25
2022-09-07T18:14:46.950Z,19.16
2022-09-07T18:17:16.013Z,19.05
2022-09-07T18:19:43.953Z,18.99
2022-09-07T18:22:11.989Z,19.00
2022-09-07T18:24:40.947Z,18.93
2022-09-07T18:27:10.376Z,18.68
2022-09-07T18:29:40.478Z,18.64
2022-09-07T18:32:09.856Z,18.70
2022-09-07T18:34:40.756Z,18.54
2022-09-07T18:37:12.192Z,18.54
2022-09-07T18:39:40.918Z,18.61
2022-09-07T18:42:11.009Z,18.53
2022-09-07T18:47:29.391Z,18.84
2022-09-07T18:49:58.654Z,18.81
2022-09-07T18:55:16.174Z,18.86
2022-09-07T18:57:45.538Z,18.92
2022-09-07T19:00:14.518Z,18.97
2022-09-07T19:02:44.903Z,18.99
2022-09-07T19:08:03.431Z,18.58
2022-09-07T19:10:33.968Z,18.61
2022-09-07T19:13:03.538Z,18.46
2022-09-07T19:15:37.146Z,18.51
2022-09-07T19:18:06.958Z,18.42
2022-09-07T19:20:42.454Z,18.15
2022-09-07T19:23:10.321Z,18.29
2022-09-07T19:25:42.307Z,18.26
2022-09-07T19:28:11.604Z,18.18
2022-09-07T19:30:39.528Z,18.10
2022-09-07T19:33:10.004Z,18.07
2022-09-07T19:35:37.915Z,17.97
2022-09-07T19:38:06.024Z,17.97
2022-09-07T19:40:34.059Z,18.12
2022-09-07T19:43:01.913Z,18.17
2022-09-07T19:45:31.569Z,18.22
2022-09-07T19:47:59.527Z,18.29
2022-09-07T19:50:27.301Z,18.29
2022-09-07T19:52:55.286Z,18.06
2022-09-07T19:55:25.600Z,17.90
2022-09-07T19:57:53.409Z,17.84
2022-09-07T20:00:22.647Z,17.78
2022-09-07T20:02:55.180Z,17.68
2022-09-07T20:05:23.853Z,17.68
2022-09-07T20:07:51.882Z,17.66
2022-09-07T20:10:19.723Z,17.75
2022-09-07T20:12:48.564Z,17.67
2022-09-07T20:15:16.454Z,17.70
2022-09-07T20:17:44.392Z,17.66
2022-09-07T20:20:13.585Z,17.55
2022-09-07T20:22:41.515Z,17.51
2022-09-07T20:25:13.144Z,17.66
2022-09-07T20:27:41.676Z,17.44
2022-09-07T20:30:10.408Z,17.59
2022-09-07T20:32:38.204Z,17.44
2022-09-07T20:35:06.793Z,17.50
2022-09-07T20:37:36.064Z,17.33
2022-09-07T20:40:06.335Z,17.28
2022-09-07T20:42:34.358Z,17.12
2022-09-07T20:45:02.869Z,17.19
2022-09-07T20:47:30.899Z,17.12
2022-09-07T20:49:58.844Z,17.01
2022-09-07T20:52:27.296Z,17.04
2022-09-07T20:54:57.138Z,16.98
2022-09-07T20:57:25.038Z,16.95
2022-09-07T20:59:53.041Z,16.86
2022-09-07T21:02:20.944Z,17.00
2022-09-07T21:04:48.918Z,16.83
2022-09-07T21:07:16.770Z,16.96
2022-09-07T21:09:44.559Z,17.08
2022-09-07T21:12:14.176Z,17.08
2022-09-07T21:14:42.045Z,17.16
2022-09-07T21:17:09.842Z,17.09
2022-09-07T21:19:37.727Z,16.95
2022-09-07T21:22:05.717Z,16.80
2022-09-07T21:24:33.491Z,16.82
2022-09-07T21:27:01.299Z,16.93
2022-09-07T21:29:30.670Z,16.88
2022-09-07T21:31:58.514Z,16.84
2022-09-07T21:34:26.356Z,16.78
2022-09-07T21:36:54.199Z,16.78
2022-09-07T21:39:22.107Z,16.82
2022-09-07T21:41:50.256Z,16.64
2022-09-07T21:44:18.393Z,16.56
2022-09-07T21:46:47.721Z,16.67
2022-09-07T21:49:15.593Z,16.73
2022-09-07T21:51:43.607Z,16.82
2022-09-07T21:54:11.840Z,16.64
2022-09-07T21:56:44.382Z,16.65
2022-09-07T21:59:13.896Z,16.42
2022-09-07T22:01:41.992Z,16.63
2022-09-07T22:04:13.567Z,16.35
2022-09-07T22:06:43.897Z,16.20
2022-09-07T22:09:11.610Z,16.16
2022-09-07T22:11:42.020Z,16.51
2022-09-07T22:14:15.741Z,16.57
2022-09-07T22:16:43.683Z,16.34
2022-09-07T22:19:12.913Z,16.14
2022-09-07T22:21:41.109Z,16.04
2022-09-07T22:24:08.861Z,16.00
2022-09-07T22:26:38.388Z,16.23
2022-09-07T22:29:07.635Z,16.25
2022-09-07T22:31:37.416Z,16.31
2022-09-07T22:34:08.892Z,16.26
2022-09-07T22:36:39.927Z,16.19
2022-09-07T22:39:09.941Z,16.24
2022-09-07T22:41:40.028Z,16.14
2022-09-07T22:44:10.587Z,16.02
2022-09-07T22:46:40.663Z,15.93
2022-09-07T22:49:09.990Z,16.16
2022-09-07T22:51:39.562Z,16.14
2022-09-07T22:54:07.940Z,16.04
2022-09-07T22:56:35.819Z,15.97
2022-09-07T22:59:07.502Z,16.12
2022-09-07T23:01:36.662Z,16.11
2022-09-07T23:04:05.695Z,15.98
2022-09-07T23:06:35.594Z,16.00
2022-09-07T23:09:07.779Z,15.73
2022-09-07T23:11:36.492Z,15.76
2022-09-07T23:14:06.499Z,15.75
2022-09-07T23:16:35.137Z,15.69
2022-09-07T23:19:02.957Z,15.76
2022-09-07T23:21:30.835Z,15.85
2022-09-07T23:24:00.789Z,15.88
2022-09-07T23:26:32.075Z,15.83
2022-09-07T23:29:01.783Z,15.76
2022-09-07T23:31:31.674Z,15.60
2022-09-07T23:33:59.819Z,15.46
2022-09-07T23:36:29.579Z,15.38
2022-09-07T23:38:59.590Z,15.55
2022-09-07T23:41:29.585Z,15.61
2022-09-07T23:43:57.688Z,15.71
2022-09-07T23:46:26.067Z,15.60
2022-09-07T23:48:54.301Z,15.39
2022-09-07T23:51:24.520Z,15.17
2022-09-07T23:53:53.513Z,15.24
2022-09-07T23:56:21.574Z,15.27
2022-09-07T23:58:50.827Z,15.45
